sensor_id;sensor_type;location;lat;lon;timestamp;P1;durP1;ratioP1;P2;durP2;ratioP2
37459;SDS011;23318;50.966;5.284;2023-10-31T00:00:38;7.15;;;3.50;;
37459;SDS011;23318;50.966;5.284;2023-10-31T00:03:04;5.82;;;3.22;;
37459;SDS011;23318;50.966;5.284;2023-10-31T00:05:29;9.73;;;3.20;;
37459;SDS011;23318;50.966;5.284;2023-10-31T00:07:55;8.98;;;3.67;;
37459;SDS011;23318;50.966;5.284;2023-10-31T00:10:21;12.20;;;4.32;;
37459;SDS011;23318;50.966;5.284;2023-10-31T00:12:46;9.23;;;4.00;;
37459;SDS011;23318;50.966;5.284;2023-10-31T00:15:13;10.95;;;3.97;;
37459;SDS011;23318;50.966;5.284;2023-10-31T00:17:39;8.50;;;3.50;;
37459;SDS011;23318;50.966;5.284;2023-10-31T00:20:05;9.45;;;4.07;;
37459;SDS011;23318;50.966;5.284;2023-10-31T00:22:31;15.80;;;4.10;;
37459;SDS011;23318;50.966;5.284;2023-10-31T00:24:57;10.07;;;4.75;;
37459;SDS011;23318;50.966;5.284;2023-10-31T00:27:23;8.65;;;4.35;;
37459;SDS011;23318;50.966;5.284;2023-10-31T00:29:48;8.95;;;4.75;;
37459;SDS011;23318;50.966;5.284;2023-10-31T00:32:14;8.93;;;4.63;;
37459;SDS011;23318;50.966;5.284;2023-10-31T00:34:40;9.20;;;5.13;;
37459;SDS011;23318;50.966;5.284;2023-10-31T00:37:05;15.55;;;6.55;;
37459;SDS011;23318;50.966;5.284;2023-10-31T00:39:31;11.43;;;6.38;;
37459;SDS011;23318;50.966;5.284;2023-10-31T00:41:59;12.80;;;6.00;;
37459;SDS011;23318;50.966;5.284;2023-10-31T00:44:24;14.93;;;6.13;;
37459;SDS011;23318;50.966;5.284;2023-10-31T00:46:50;14.80;;;7.03;;
37459;SDS011;23318;50.966;5.284;2023-10-31T00:49:16;17.88;;;7.40;;
37459;SDS011;23318;50.966;5.284;2023-10-31T00:51:42;15.90;;;7.07;;
37459;SDS011;23318;50.966;5.284;2023-10-31T00:54:07;20.88;;;9.18;;
37459;SDS011;23318;50.966;5.284;2023-10-31T00:56:33;21.60;;;9.50;;
37459;SDS011;23318;50.966;5.284;2023-10-31T00:58:59;28.90;;;9.65;;
37459;SDS011;23318;50.966;5.284;2023-10-31T01:01:26;29.45;;;10.38;;
37459;SDS011;23318;50.966;5.284;2023-10-31T01:03:52;27.23;;;11.02;;
37459;SDS011;23318;50.966;5.284;2023-10-31T01:06:18;29.70;;;11.48;;
37459;SDS011;23318;50.966;5.284;2023-10-31T01:08:43;28.85;;;11.40;;
37459;SDS011;23318;50.966;5.284;2023-10-31T01:11:09;33.25;;;10.48;;
37459;SDS011;23318;50.966;5.284;2023-10-31T01:13:34;36.58;;;12.05;;
37459;SDS011;23318;50.966;5.284;2023-10-31T01:16:00;32.67;;;12.50;;
37459;SDS011;23318;50.966;5.284;2023-10-31T01:18:26;37.38;;;12.23;;
37459;SDS011;23318;50.966;5.284;2023-10-31T01:20:51;34.42;;;12.00;;
37459;SDS011;23318;50.966;5.284;2023-10-31T01:23:17;32.05;;;11.48;;
37459;SDS011;23318;50.966;5.284;2023-10-31T01:25:43;32.95;;;11.68;;
37459;SDS011;23318;50.966;5.284;2023-10-31T01:28:09;28.00;;;11.27;;
37459;SDS011;23318;50.966;5.284;2023-10-31T01:30:34;29.05;;;11.10;;
37459;SDS011;23318;50.966;5.284;2023-10-31T01:33:00;26.13;;;11.07;;
37459;SDS011;23318;50.966;5.284;2023-10-31T01:35:26;28.58;;;10.82;;
37459;SDS011;23318;50.966;5.284;2023-10-31T01:37:52;23.70;;;9.75;;
37459;SDS011;23318;50.966;5.284;2023-10-31T01:40:17;25.83;;;9.65;;
37459;SDS011;23318;50.966;5.284;2023-10-31T01:42:43;21.38;;;10.00;;
37459;SDS011;23318;50.966;5.284;2023-10-31T01:45:09;21.23;;;8.57;;
37459;SDS011;23318;50.966;5.284;2023-10-31T01:47:35;25.00;;;9.35;;
37459;SDS011;23318;50.966;5.284;2023-10-31T01:50:00;18.48;;;8.55;;
37459;SDS011;23318;50.966;5.284;2023-10-31T01:52:26;20.52;;;8.07;;
37459;SDS011;23318;50.966;5.284;2023-10-31T01:54:53;19.92;;;8.35;;
37459;SDS011;23318;50.966;5.284;2023-10-31T01:57:20;21.13;;;8.13;;
37459;SDS011;23318;50.966;5.284;2023-10-31T01:59:46;17.85;;;7.72;;
37459;SDS011;23318;50.966;5.284;2023-10-31T02:02:12;18.52;;;7.20;;
37459;SDS011;23318;50.966;5.284;2023-10-31T02:04:39;15.25;;;6.40;;
37459;SDS011;23318;50.966;5.284;2023-10-31T02:07:04;15.88;;;6.80;;
37459;SDS011;23318;50.966;5.284;2023-10-31T02:09:31;10.35;;;5.57;;
37459;SDS011;23318;50.966;5.284;2023-10-31T02:11:57;10.10;;;4.88;;
37459;SDS011;23318;50.966;5.284;2023-10-31T02:14:23;12.50;;;5.32;;
37459;SDS011;23318;50.966;5.284;2023-10-31T02:16:49;8.90;;;4.88;;
37459;SDS011;23318;50.966;5.284;2023-10-31T02:19:16;8.90;;;4.30;;
37459;SDS011;23318;50.966;5.284;2023-10-31T02:21:44;10.38;;;4.28;;
37459;SDS011;23318;50.966;5.284;2023-10-31T02:24:10;6.22;;;3.63;;
37459;SDS011;23318;50.966;5.284;2023-10-31T02:26:36;7.00;;;4.03;;
37459;SDS011;23318;50.966;5.284;2023-10-31T02:29:02;8.18;;;4.47;;
37459;SDS011;23318;50.966;5.284;2023-10-31T02:31:28;6.10;;;3.83;;
37459;SDS011;23318;50.966;5.284;2023-10-31T02:33:54;6.93;;;4.57;;
37459;SDS011;23318;50.966;5.284;2023-10-31T02:36:20;6.18;;;3.80;;
37459;SDS011;23318;50.966;5.284;2023-10-31T02:38:46;11.63;;;5.07;;
37459;SDS011;23318;50.966;5.284;2023-10-31T02:41:12;6.47;;;4.22;;
37459;SDS011;23318;50.966;5.284;2023-10-31T02:43:39;6.38;;;4.57;;
37459;SDS011;23318;50.966;5.284;2023-10-31T02:46:05;8.02;;;4.70;;
37459;SDS011;23318;50.966;5.284;2023-10-31T02:48:31;10.13;;;4.72;;
37459;SDS011;23318;50.966;5.284;2023-10-31T02:51:03;8.85;;;5.18;;
37459;SDS011;23318;50.966;5.284;2023-10-31T02:53:29;8.82;;;4.50;;
37459;SDS011;23318;50.966;5.284;2023-10-31T02:55:55;8.75;;;4.78;;
37459;SDS011;23318;50.966;5.284;2023-10-31T02:58:21;7.38;;;5.13;;
37459;SDS011;23318;50.966;5.284;2023-10-31T03:00:46;8.55;;;5.10;;
37459;SDS011;23318;50.966;5.284;2023-10-31T03:03:12;8.48;;;5.53;;
37459;SDS011;23318;50.966;5.284;2023-10-31T03:05:38;16.13;;;6.15;;
37459;SDS011;23318;50.966;5.284;2023-10-31T03:08:04;7.65;;;5.72;;
37459;SDS011;23318;50.966;5.284;2023-10-31T03:10:30;8.93;;;4.60;;
37459;SDS011;23318;50.966;5.284;2023-10-31T03:12:55;9.57;;;5.30;;
37459;SDS011;23318;50.966;5.284;2023-10-31T03:15:21;9.82;;;5.88;;
37459;SDS011;23318;50.966;5.284;2023-10-31T03:17:47;8.45;;;5.13;;
37459;SDS011;23318;50.966;5.284;2023-10-31T03:20:12;8.65;;;4.78;;
37459;SDS011;23318;50.966;5.284;2023-10-31T03:22:38;9.75;;;5.32;;
37459;SDS011;23318;50.966;5.284;2023-10-31T03:25:04;10.25;;;5.20;;
37459;SDS011;23318;50.966;5.284;2023-10-31T03:27:30;7.47;;;5.43;;
37459;SDS011;23318;50.966;5.284;2023-10-31T03:29:55;8.77;;;5.10;;
37459;SDS011;23318;50.966;5.284;2023-10-31T03:32:21;7.15;;;4.45;;
37459;SDS011;23318;50.966;5.284;2023-10-31T03:34:47;7.70;;;5.30;;
37459;SDS011;23318;50.966;5.284;2023-10-31T03:37:12;6.72;;;4.47;;
37459;SDS011;23318;50.966;5.284;2023-10-31T03:39:38;9.52;;;4.78;;
37459;SDS011;23318;50.966;5.284;2023-10-31T03:42:03;6.93;;;5.20;;
37459;SDS011;23318;50.966;5.284;2023-10-31T03:44:30;7.82;;;4.75;;
37459;SDS011;23318;50.966;5.284;2023-10-31T03:46:56;7.60;;;5.07;;
37459;SDS011;23318;50.966;5.284;2023-10-31T03:49:21;8.93;;;5.03;;
37459;SDS011;23318;50.966;5.284;2023-10-31T03:51:47;9.35;;;4.57;;
37459;SDS011;23318;50.966;5.284;2023-10-31T03:54:13;7.28;;;4.90;;
37459;SDS011;23318;50.966;5.284;2023-10-31T03:56:39;12.18;;;4.75;;
37459;SDS011;23318;50.966;5.284;2023-10-31T03:59:05;7.43;;;4.75;;
37459;SDS011;23318;50.966;5.284;2023-10-31T04:01:31;9.13;;;4.65;;
37459;SDS011;23318;50.966;5.284;2023-10-31T04:03:57;7.57;;;4.90;;
37459;SDS011;23318;50.966;5.284;2023-10-31T04:06:22;8.90;;;4.75;;
37459;SDS011;23318;50.966;5.284;2023-10-31T04:08:48;9.55;;;4.18;;
37459;SDS011;23318;50.966;5.284;2023-10-31T04:11:14;8.75;;;4.55;;
37459;SDS011;23318;50.966;5.284;2023-10-31T04:13:39;12.77;;;4.15;;
37459;SDS011;23318;50.966;5.284;2023-10-31T04:16:05;5.40;;;4.40;;
37459;SDS011;23318;50.966;5.284;2023-10-31T04:18:31;5.57;;;4.20;;
37459;SDS011;23318;50.966;5.284;2023-10-31T04:20:57;8.10;;;3.95;;
37459;SDS011;23318;50.966;5.284;2023-10-31T04:23:22;6.05;;;3.47;;
37459;SDS011;23318;50.966;5.284;2023-10-31T04:25:48;7.63;;;4.15;;
37459;SDS011;23318;50.966;5.284;2023-10-31T04:28:15;7.03;;;3.83;;
37459;SDS011;23318;50.966;5.284;2023-10-31T04:30:41;5.35;;;3.80;;
37459;SDS011;23318;50.966;5.284;2023-10-31T04:33:07;7.43;;;3.95;;
37459;SDS011;23318;50.966;5.284;2023-10-31T04:35:32;5.20;;;3.92;;
37459;SDS011;23318;50.966;5.284;2023-10-31T04:37:58;5.72;;;3.50;;
37459;SDS011;23318;50.966;5.284;2023-10-31T04:40:24;5.38;;;3.50;;
37459;SDS011;23318;50.966;5.284;2023-10-31T04:42:49;7.97;;;3.60;;
37459;SDS011;23318;50.966;5.284;2023-10-31T04:45:15;4.07;;;2.90;;
37459;SDS011;23318;50.966;5.284;2023-10-31T04:47:41;3.95;;;3.35;;
37459;SDS011;23318;50.966;5.284;2023-10-31T04:50:07;5.03;;;3.35;;
37459;SDS011;23318;50.966;5.284;2023-10-31T04:52:33;5.18;;;3.55;;
37459;SDS011;23318;50.966;5.284;2023-10-31T04:54:58;6.40;;;3.70;;
37459;SDS011;23318;50.966;5.284;2023-10-31T04:57:24;5.20;;;3.15;;
37459;SDS011;23318;50.966;5.284;2023-10-31T04:59:50;5.07;;;3.50;;
37459;SDS011;23318;50.966;5.284;2023-10-31T05:02:16;4.00;;;3.10;;
37459;SDS011;23318;50.966;5.284;2023-10-31T05:04:42;3.97;;;3.17;;
37459;SDS011;23318;50.966;5.284;2023-10-31T05:07:07;3.83;;;3.13;;
37459;SDS011;23318;50.966;5.284;2023-10-31T05:09:33;4.85;;;2.75;;
37459;SDS011;23318;50.966;5.284;2023-10-31T05:11:59;4.75;;;3.00;;
37459;SDS011;23318;50.966;5.284;2023-10-31T05:14:25;7.57;;;3.78;;
37459;SDS011;23318;50.966;5.284;2023-10-31T05:16:51;5.68;;;3.95;;
37459;SDS011;23318;50.966;5.284;2023-10-31T05:19:16;5.78;;;3.17;;
37459;SDS011;23318;50.966;5.284;2023-10-31T05:21:42;5.07;;;4.00;;
37459;SDS011;23318;50.966;5.284;2023-10-31T05:24:08;5.32;;;3.70;;
37459;SDS011;23318;50.966;5.284;2023-10-31T05:26:33;6.07;;;3.88;;
37459;SDS011;23318;50.966;5.284;2023-10-31T05:28:59;5.07;;;4.20;;
37459;SDS011;23318;50.966;5.284;2023-10-31T05:31:25;6.90;;;4.20;;
37459;SDS011;23318;50.966;5.284;2023-10-31T05:33:51;6.70;;;4.80;;
37459;SDS011;23318;50.966;5.284;2023-10-31T05:36:24;7.72;;;4.43;;
37459;SDS011;23318;50.966;5.284;2023-10-31T05:38:50;6.40;;;4.28;;
37459;SDS011;23318;50.966;5.284;2023-10-31T05:41:16;6.97;;;4.22;;
37459;SDS011;23318;50.966;5.284;2023-10-31T05:43:42;6.78;;;4.60;;
37459;SDS011;23318;50.966;5.284;2023-10-31T05:46:07;8.30;;;4.43;;
37459;SDS011;23318;50.966;5.284;2023-10-31T05:48:39;7.65;;;5.07;;
37459;SDS011;23318;50.966;5.284;2023-10-31T05:51:16;11.98;;;5.35;;
37459;SDS011;23318;50.966;5.284;2023-10-31T05:53:44;8.20;;;5.28;;
37459;SDS011;23318;50.966;5.284;2023-10-31T05:56:11;8.43;;;5.28;;
37459;SDS011;23318;50.966;5.284;2023-10-31T05:58:38;6.68;;;5.05;;
37459;SDS011;23318;50.966;5.284;2023-10-31T06:01:04;6.82;;;4.90;;
37459;SDS011;23318;50.966;5.284;2023-10-31T06:03:31;7.43;;;4.88;;
37459;SDS011;23318;50.966;5.284;2023-10-31T06:05:57;10.13;;;6.00;;
37459;SDS011;23318;50.966;5.284;2023-10-31T06:08:23;6.57;;;5.00;;
37459;SDS011;23318;50.966;5.284;2023-10-31T06:10:49;9.27;;;6.25;;
37459;SDS011;23318;50.966;5.284;2023-10-31T06:13:16;12.95;;;6.53;;
37459;SDS011;23318;50.966;5.284;2023-10-31T06:15:42;8.85;;;5.97;;
37459;SDS011;23318;50.966;5.284;2023-10-31T06:18:07;9.05;;;6.32;;
37459;SDS011;23318;50.966;5.284;2023-10-31T06:20:33;8.23;;;5.45;;
37459;SDS011;23318;50.966;5.284;2023-10-31T06:23:00;11.20;;;7.03;;
37459;SDS011;23318;50.966;5.284;2023-10-31T06:25:28;9.32;;;6.13;;
37459;SDS011;23318;50.966;5.284;2023-10-31T06:27:54;10.80;;;7.30;;
37459;SDS011;23318;50.966;5.284;2023-10-31T06:30:20;11.80;;;6.85;;
37459;SDS011;23318;50.966;5.284;2023-10-31T06:32:46;11.93;;;7.18;;
37459;SDS011;23318;50.966;5.284;2023-10-31T06:35:11;9.93;;;6.97;;
37459;SDS011;23318;50.966;5.284;2023-10-31T06:37:37;10.95;;;6.88;;
37459;SDS011;23318;50.966;5.284;2023-10-31T06:40:03;11.23;;;6.50;;
37459;SDS011;23318;50.966;5.284;2023-10-31T06:42:30;12.90;;;6.75;;
37459;SDS011;23318;50.966;5.284;2023-10-31T06:44:55;10.88;;;6.72;;
37459;SDS011;23318;50.966;5.284;2023-10-31T06:47:21;11.40;;;6.95;;
37459;SDS011;23318;50.966;5.284;2023-10-31T06:49:47;11.38;;;6.43;;
37459;SDS011;23318;50.966;5.284;2023-10-31T06:52:12;11.18;;;7.13;;
37459;SDS011;23318;50.966;5.284;2023-10-31T06:54:38;9.00;;;6.30;;
37459;SDS011;23318;50.966;5.284;2023-10-31T06:57:04;12.93;;;5.95;;
37459;SDS011;23318;50.966;5.284;2023-10-31T06:59:29;12.00;;;7.15;;
37459;SDS011;23318;50.966;5.284;2023-10-31T07:01:55;10.30;;;6.50;;
37459;SDS011;23318;50.966;5.284;2023-10-31T07:04:21;10.60;;;6.75;;
37459;SDS011;23318;50.966;5.284;2023-10-31T07:06:46;11.93;;;6.25;;
37459;SDS011;23318;50.966;5.284;2023-10-31T07:09:12;12.80;;;7.75;;
37459;SDS011;23318;50.966;5.284;2023-10-31T07:11:38;9.98;;;6.20;;
37459;SDS011;23318;50.966;5.284;2023-10-31T07:14:04;10.63;;;7.03;;
37459;SDS011;23318;50.966;5.284;2023-10-31T07:16:31;11.18;;;6.72;;
37459;SDS011;23318;50.966;5.284;2023-10-31T07:18:57;12.63;;;7.75;;
37459;SDS011;23318;50.966;5.284;2023-10-31T07:21:23;10.88;;;6.53;;
37459;SDS011;23318;50.966;5.284;2023-10-31T07:23:49;13.18;;;7.38;;
37459;SDS011;23318;50.966;5.284;2023-10-31T07:26:14;9.95;;;6.63;;
37459;SDS011;23318;50.966;5.284;2023-10-31T07:28:41;15.27;;;6.60;;
37459;SDS011;23318;50.966;5.284;2023-10-31T07:31:07;10.68;;;6.93;;
37459;SDS011;23318;50.966;5.284;2023-10-31T07:33:32;11.95;;;6.85;;
37459;SDS011;23318;50.966;5.284;2023-10-31T07:35:58;10.15;;;6.50;;
37459;SDS011;23318;50.966;5.284;2023-10-31T07:38:24;14.20;;;7.90;;
37459;SDS011;23318;50.966;5.284;2023-10-31T07:40:49;12.20;;;6.53;;
37459;SDS011;23318;50.966;5.284;2023-10-31T07:43:15;10.43;;;7.20;;
37459;SDS011;23318;50.966;5.284;2023-10-31T07:45:41;10.60;;;6.70;;
37459;SDS011;23318;50.966;5.284;2023-10-31T07:48:07;16.98;;;6.57;;
37459;SDS011;23318;50.966;5.284;2023-10-31T07:50:34;11.57;;;6.38;;
37459;SDS011;23318;50.966;5.284;2023-10-31T07:52:59;10.20;;;5.88;;
37459;SDS011;23318;50.966;5.284;2023-10-31T07:55:25;9.45;;;6.20;;
37459;SDS011;23318;50.966;5.284;2023-10-31T07:57:51;12.23;;;6.55;;
37459;SDS011;23318;50.966;5.284;2023-10-31T08:00:16;9.52;;;5.03;;
37459;SDS011;23318;50.966;5.284;2023-10-31T08:02:42;7.97;;;4.80;;
37459;SDS011;23318;50.966;5.284;2023-10-31T08:05:09;6.93;;;4.70;;
37459;SDS011;23318;50.966;5.284;2023-10-31T08:07:35;8.25;;;5.00;;
37459;SDS011;23318;50.966;5.284;2023-10-31T08:10:01;6.88;;;4.93;;
37459;SDS011;23318;50.966;5.284;2023-10-31T08:12:29;8.52;;;5.40;;
37459;SDS011;23318;50.966;5.284;2023-10-31T08:14:54;9.25;;;4.72;;
37459;SDS011;23318;50.966;5.284;2023-10-31T08:17:20;5.88;;;3.92;;
37459;SDS011;23318;50.966;5.284;2023-10-31T08:19:46;7.88;;;4.40;;
37459;SDS011;23318;50.966;5.284;2023-10-31T08:22:12;6.53;;;4.63;;
37459;SDS011;23318;50.966;5.284;2023-10-31T08:24:38;6.18;;;3.85;;
37459;SDS011;23318;50.966;5.284;2023-10-31T08:27:04;7.80;;;4.88;;
37459;SDS011;23318;50.966;5.284;2023-10-31T08:29:30;5.95;;;4.07;;
37459;SDS011;23318;50.966;5.284;2023-10-31T08:31:56;5.75;;;4.03;;
37459;SDS011;23318;50.966;5.284;2023-10-31T08:34:22;13.77;;;5.10;;
37459;SDS011;23318;50.966;5.284;2023-10-31T08:36:48;11.52;;;4.55;;
37459;SDS011;23318;50.966;5.284;2023-10-31T08:39:13;12.93;;;4.95;;
37459;SDS011;23318;50.966;5.284;2023-10-31T08:41:49;7.28;;;4.53;;
37459;SDS011;23318;50.966;5.284;2023-10-31T08:44:22;7.43;;;4.57;;
37459;SDS011;23318;50.966;5.284;2023-10-31T08:46:48;8.57;;;5.25;;
37459;SDS011;23318;50.966;5.284;2023-10-31T08:49:14;7.10;;;4.63;;
37459;SDS011;23318;50.966;5.284;2023-10-31T08:51:40;9.32;;;4.80;;
37459;SDS011;23318;50.966;5.284;2023-10-31T08:54:06;7.93;;;4.85;;
37459;SDS011;23318;50.966;5.284;2023-10-31T08:56:32;6.97;;;4.10;;
37459;SDS011;23318;50.966;5.284;2023-10-31T08:58:58;10.52;;;5.63;;
37459;SDS011;23318;50.966;5.284;2023-10-31T09:01:23;7.57;;;4.65;;
37459;SDS011;23318;50.966;5.284;2023-10-31T09:03:50;6.78;;;4.30;;
37459;SDS011;23318;50.966;5.284;2023-10-31T09:06:15;6.57;;;4.28;;
37459;SDS011;23318;50.966;5.284;2023-10-31T09:08:41;9.15;;;5.05;;
37459;SDS011;23318;50.966;5.284;2023-10-31T09:11:07;8.80;;;6.25;;
37459;SDS011;23318;50.966;5.284;2023-10-31T09:13:32;8.68;;;3.90;;
37459;SDS011;23318;50.966;5.284;2023-10-31T09:15:58;5.93;;;3.75;;
37459;SDS011;23318;50.966;5.284;2023-10-31T09:18:24;5.35;;;3.55;;
37459;SDS011;23318;50.966;5.284;2023-10-31T09:20:50;6.55;;;4.05;;
37459;SDS011;23318;50.966;5.284;2023-10-31T09:23:16;7.32;;;3.17;;
37459;SDS011;23318;50.966;5.284;2023-10-31T09:25:44;7.10;;;3.90;;
37459;SDS011;23318;50.966;5.284;2023-10-31T09:28:10;9.05;;;4.68;;
37459;SDS011;23318;50.966;5.284;2023-10-31T09:30:36;9.82;;;4.45;;
37459;SDS011;23318;50.966;5.284;2023-10-31T09:33:02;6.15;;;4.13;;
37459;SDS011;23318;50.966;5.284;2023-10-31T09:35:28;7.93;;;3.72;;
37459;SDS011;23318;50.966;5.284;2023-10-31T09:37:54;9.88;;;3.78;;
37459;SDS011;23318;50.966;5.284;2023-10-31T09:40:20;7.20;;;3.35;;
37459;SDS011;23318;50.966;5.284;2023-10-31T09:42:47;6.22;;;3.92;;
37459;SDS011;23318;50.966;5.284;2023-10-31T09:45:13;8.85;;;3.80;;
37459;SDS011;23318;50.966;5.284;2023-10-31T09:47:39;8.35;;;3.85;;
37459;SDS011;23318;50.966;5.284;2023-10-31T09:50:06;7.70;;;4.20;;
37459;SDS011;23318;50.966;5.284;2023-10-31T09:52:35;5.80;;;3.42;;
37459;SDS011;23318;50.966;5.284;2023-10-31T09:55:01;4.07;;;2.75;;
37459;SDS011;23318;50.966;5.284;2023-10-31T09:57:28;3.55;;;2.40;;
37459;SDS011;23318;50.966;5.284;2023-10-31T09:59:54;7.38;;;2.95;;
37459;SDS011;23318;50.966;5.284;2023-10-31T10:02:20;4.95;;;2.42;;
37459;SDS011;23318;50.966;5.284;2023-10-31T10:04:45;2.92;;;1.90;;
37459;SDS011;23318;50.966;5.284;2023-10-31T10:07:13;4.05;;;2.47;;
37459;SDS011;23318;50.966;5.284;2023-10-31T10:09:44;6.28;;;2.20;;
37459;SDS011;23318;50.966;5.284;2023-10-31T10:12:15;2.53;;;2.33;;
37459;SDS011;23318;50.966;5.284;2023-10-31T10:14:41;2.78;;;2.17;;
37459;SDS011;23318;50.966;5.284;2023-10-31T10:19:41;3.75;;;2.30;;
37459;SDS011;23318;50.966;5.284;2023-10-31T10:22:07;5.80;;;2.25;;
37459;SDS011;23318;50.966;5.284;2023-10-31T10:24:33;3.88;;;1.67;;
37459;SDS011;23318;50.966;5.284;2023-10-31T10:26:59;4.85;;;1.50;;
37459;SDS011;23318;50.966;5.284;2023-10-31T10:29:25;5.78;;;1.77;;
37459;SDS011;23318;50.966;5.284;2023-10-31T10:31:51;3.15;;;1.38;;
37459;SDS011;23318;50.966;5.284;2023-10-31T10:34:17;3.15;;;1.58;;
37459;SDS011;23318;50.966;5.284;2023-10-31T10:36:48;2.25;;;1.55;;
37459;SDS011;23318;50.966;5.284;2023-10-31T10:39:15;3.80;;;1.30;;
37459;SDS011;23318;50.966;5.284;2023-10-31T10:41:50;1.42;;;1.20;;
37459;SDS011;23318;50.966;5.284;2023-10-31T10:44:19;3.45;;;1.27;;
37459;SDS011;23318;50.966;5.284;2023-10-31T10:46:54;1.67;;;1.20;;
37459;SDS011;23318;50.966;5.284;2023-10-31T10:49:21;3.83;;;1.15;;
37459;SDS011;23318;50.966;5.284;2023-10-31T10:59:49;1.48;;;1.00;;
37459;SDS011;23318;50.966;5.284;2023-10-31T11:02:19;5.95;;;1.17;;
37459;SDS011;23318;50.966;5.284;2023-10-31T11:04:46;2.65;;;1.10;;
37459;SDS011;23318;50.966;5.284;2023-10-31T11:07:13;4.65;;;1.02;;
37459;SDS011;23318;50.966;5.284;2023-10-31T11:09:39;3.65;;;0.90;;
37459;SDS011;23318;50.966;5.284;2023-10-31T11:12:06;3.63;;;1.48;;
37459;SDS011;23318;50.966;5.284;2023-10-31T11:14:33;5.22;;;1.30;;
37459;SDS011;23318;50.966;5.284;2023-10-31T11:17:01;3.92;;;1.00;;
37459;SDS011;23318;50.966;5.284;2023-10-31T11:19:34;5.10;;;1.33;;
37459;SDS011;23318;50.966;5.284;2023-10-31T11:22:01;3.88;;;1.20;;
37459;SDS011;23318;50.966;5.284;2023-10-31T11:24:31;5.15;;;1.00;;
37459;SDS011;23318;50.966;5.284;2023-10-31T11:26:59;12.20;;;1.55;;
37459;SDS011;23318;50.966;5.284;2023-10-31T11:29:27;3.58;;;1.10;;
37459;SDS011;23318;50.966;5.284;2023-10-31T11:31:56;5.05;;;1.20;;
37459;SDS011;23318;50.966;5.284;2023-10-31T11:34:22;3.70;;;0.80;;
37459;SDS011;23318;50.966;5.284;2023-10-31T11:36:48;3.42;;;1.15;;
37459;SDS011;23318;50.966;5.284;2023-10-31T11:39:18;3.53;;;0.98;;
37459;SDS011;23318;50.966;5.284;2023-10-31T11:41:49;9.43;;;1.55;;
37459;SDS011;23318;50.966;5.284;2023-10-31T11:44:16;4.03;;;1.27;;
37459;SDS011;23318;50.966;5.284;2023-10-31T11:46:42;2.92;;;0.82;;
37459;SDS011;23318;50.966;5.284;2023-10-31T11:49:08;4.72;;;0.90;;
37459;SDS011;23318;50.966;5.284;2023-10-31T11:51:34;4.32;;;1.35;;
37459;SDS011;23318;50.966;5.284;2023-10-31T11:54:01;4.45;;;1.05;;
37459;SDS011;23318;50.966;5.284;2023-10-31T11:56:27;6.18;;;1.08;;
37459;SDS011;23318;50.966;5.284;2023-10-31T11:58:57;3.47;;;0.93;;
37459;SDS011;23318;50.966;5.284;2023-10-31T12:01:43;6.30;;;1.27;;
37459;SDS011;23318;50.966;5.284;2023-10-31T12:04:22;3.58;;;1.35;;
37459;SDS011;23318;50.966;5.284;2023-10-31T12:07:00;4.13;;;0.93;;
37459;SDS011;23318;50.966;5.284;2023-10-31T12:09:26;3.45;;;1.00;;
37459;SDS011;23318;50.966;5.284;2023-10-31T12:11:52;5.72;;;0.95;;
37459;SDS011;23318;50.966;5.284;2023-10-31T12:14:18;9.57;;;0.90;;
37459;SDS011;23318;50.966;5.284;2023-10-31T12:16:45;6.13;;;1.10;;
37459;SDS011;23318;50.966;5.284;2023-10-31T12:19:11;3.53;;;1.38;;
37459;SDS011;23318;50.966;5.284;2023-10-31T12:21:38;4.40;;;1.55;;
37459;SDS011;23318;50.966;5.284;2023-10-31T12:24:09;5.40;;;1.25;;
37459;SDS011;23318;50.966;5.284;2023-10-31T12:26:36;5.20;;;1.20;;
37459;SDS011;23318;50.966;5.284;2023-10-31T12:29:16;4.72;;;0.90;;
37459;SDS011;23318;50.966;5.284;2023-10-31T12:31:49;2.65;;;1.02;;
37459;SDS011;23318;50.966;5.284;2023-10-31T12:34:19;4.80;;;1.10;;
37459;SDS011;23318;50.966;5.284;2023-10-31T12:36:47;7.30;;;2.30;;
37459;SDS011;23318;50.966;5.284;2023-10-31T12:39:14;4.55;;;1.30;;
37459;SDS011;23318;50.966;5.284;2023-10-31T12:41:41;7.15;;;1.75;;
37459;SDS011;23318;50.966;5.284;2023-10-31T12:44:08;4.57;;;1.30;;
37459;SDS011;23318;50.966;5.284;2023-10-31T12:46:40;5.10;;;1.65;;
37459;SDS011;23318;50.966;5.284;2023-10-31T12:49:12;5.38;;;1.55;;
37459;SDS011;23318;50.966;5.284;2023-10-31T12:52:01;4.68;;;2.00;;
37459;SDS011;23318;50.966;5.284;2023-10-31T12:54:35;4.97;;;1.80;;
37459;SDS011;23318;50.966;5.284;2023-10-31T12:59:29;5.72;;;1.80;;
37459;SDS011;23318;50.966;5.284;2023-10-31T13:01:55;10.40;;;2.30;;
37459;SDS011;23318;50.966;5.284;2023-10-31T13:04:27;4.43;;;2.72;;
37459;SDS011;23318;50.966;5.284;2023-10-31T13:06:55;6.10;;;2.03;;
37459;SDS011;23318;50.966;5.284;2023-10-31T13:09:32;3.83;;;2.20;;
37459;SDS011;23318;50.966;5.284;2023-10-31T13:12:04;7.20;;;3.00;;
37459;SDS011;23318;50.966;5.284;2023-10-31T13:14:31;4.60;;;2.10;;
37459;SDS011;23318;50.966;5.284;2023-10-31T13:16:57;5.55;;;2.25;;
37459;SDS011;23318;50.966;5.284;2023-10-31T13:19:24;5.18;;;2.10;;
37459;SDS011;23318;50.966;5.284;2023-10-31T13:21:49;4.45;;;1.55;;
37459;SDS011;23318;50.966;5.284;2023-10-31T13:24:16;3.50;;;2.00;;
37459;SDS011;23318;50.966;5.284;2023-10-31T13:26:41;2.78;;;1.42;;
37459;SDS011;23318;50.966;5.284;2023-10-31T13:29:09;4.63;;;1.20;;
37459;SDS011;23318;50.966;5.284;2023-10-31T13:31:35;4.00;;;1.50;;
37459;SDS011;23318;50.966;5.284;2023-10-31T13:34:00;2.67;;;1.02;;
37459;SDS011;23318;50.966;5.284;2023-10-31T13:36:26;3.05;;;1.13;;
37459;SDS011;23318;50.966;5.284;2023-10-31T13:38:52;3.30;;;1.33;;
37459;SDS011;23318;50.966;5.284;2023-10-31T13:41:18;1.48;;;1.20;;
37459;SDS011;23318;50.966;5.284;2023-10-31T13:43:43;3.63;;;1.52;;
37459;SDS011;23318;50.966;5.284;2023-10-31T13:46:09;6.90;;;1.10;;
37459;SDS011;23318;50.966;5.284;2023-10-31T13:48:35;6.18;;;1.50;;
37459;SDS011;23318;50.966;5.284;2023-10-31T13:51:00;3.67;;;1.38;;
37459;SDS011;23318;50.966;5.284;2023-10-31T13:53:26;2.22;;;1.13;;
37459;SDS011;23318;50.966;5.284;2023-10-31T13:55:52;3.40;;;1.60;;
37459;SDS011;23318;50.966;5.284;2023-10-31T13:58:17;4.03;;;1.23;;
37459;SDS011;23318;50.966;5.284;2023-10-31T14:00:44;3.53;;;1.50;;
37459;SDS011;23318;50.966;5.284;2023-10-31T14:03:10;4.57;;;1.92;;
37459;SDS011;23318;50.966;5.284;2023-10-31T14:05:36;3.38;;;1.67;;
37459;SDS011;23318;50.966;5.284;2023-10-31T14:08:02;2.15;;;1.92;;
37459;SDS011;23318;50.966;5.284;2023-10-31T14:10:28;3.40;;;1.33;;
37459;SDS011;23318;50.966;5.284;2023-10-31T14:12:56;4.82;;;1.98;;
37459;SDS011;23318;50.966;5.284;2023-10-31T14:15:22;3.53;;;1.30;;
37459;SDS011;23318;50.966;5.284;2023-10-31T14:17:48;2.38;;;1.88;;
37459;SDS011;23318;50.966;5.284;2023-10-31T14:20:14;3.63;;;1.98;;
37459;SDS011;23318;50.966;5.284;2023-10-31T14:22:40;2.70;;;1.50;;
37459;SDS011;23318;50.966;5.284;2023-10-31T14:25:06;2.40;;;1.60;;
37459;SDS011;23318;50.966;5.284;2023-10-31T14:27:32;2.53;;;1.42;;
37459;SDS011;23318;50.966;5.284;2023-10-31T14:29:58;1.45;;;1.30;;
37459;SDS011;23318;50.966;5.284;2023-10-31T14:32:24;5.10;;;1.35;;
37459;SDS011;23318;50.966;5.284;2023-10-31T14:34:50;4.00;;;1.73;;
37459;SDS011;23318;50.966;5.284;2023-10-31T14:37:16;3.85;;;1.58;;
37459;SDS011;23318;50.966;5.284;2023-10-31T14:39:41;1.83;;;1.45;;
37459;SDS011;23318;50.966;5.284;2023-10-31T14:42:08;3.85;;;1.60;;
37459;SDS011;23318;50.966;5.284;2023-10-31T14:44:33;3.55;;;1.48;;
37459;SDS011;23318;50.966;5.284;2023-10-31T14:46:59;2.85;;;1.63;;
37459;SDS011;23318;50.966;5.284;2023-10-31T14:49:25;2.35;;;1.63;;
37459;SDS011;23318;50.966;5.284;2023-10-31T14:51:50;5.90;;;1.45;;